Terminal Aerodrome Forecast
Issued by NWS Newport/Morehead City, NC

Home | Current Version | Previous Version | Text Only | Print | Product List | Glossary On
Versions: 1 2 3 4 5 6 7 8 9 10 11 12 13 14 15 16 17 18 19 20 21 22 23 24 25 26
000
FTUS42 KMHX 282300
TAFEWN
TAF
KEWN 282321Z 2900/2924 VRB05KT P6SM SCT040 BKN120
      TEMPO 2903/2906 SCT008 BKN020
     FM290600 04003KT 4SM -RA BR OVC005
     FM291300 03006KT 3SM -RA BR OVC004=

USA.gov is the U.S. government's official web portal to all federal, state and local government web resources and services.